Time;durP1;ratioP1;P1;durP2;ratioP2;P2;SDS_P1;SDS_P2;PMS_P1;PMS_P2;Temp;Humidity;BMP_temperature;BMP_pressure;BME280_temperature;BME280_humidity;BME280_pressure;Samples;Min_cycle;Max_cycle;Signal;HPM_P1;HPM_P2
2021/12/01 00:01:58;;;;;;;6.45;3.63;;;;;;;0.46;73.95;96258.81;10290317;28;96858;-64
2021/12/01 00:07:01;;;;;;;5.45;3.60;;;;;;;0.52;73.83;96244.81;10287733;28;98270;-64
2021/12/01 00:12:04;;;;;;;7.63;3.92;;;;;;;0.59;73.14;96233.28;10289918;28;96808;-65
2021/12/01 00:17:11;;;;;;;7.38;4.00;;;;;;;0.60;73.48;96225.47;10281980;28;96930;-65
2021/12/01 00:22:14;;;;;;;5.15;3.22;;;;;;;0.61;74.00;96205.72;10287792;28;97056;-65
2021/12/01 00:27:16;;;;;;;5.90;3.75;;;;;;;0.60;74.07;96196.34;10285290;28;97090;-65
2021/12/01 00:32:21;;;;;;;6.63;3.47;;;;;;;0.64;73.95;96184.16;10286113;28;99679;-65
2021/12/01 00:37:23;;;;;;;7.80;3.15;;;;;;;0.61;73.80;96175.69;10286113;28;97321;-65
2021/12/01 00:42:26;;;;;;;4.63;2.90;;;;;;;0.54;73.96;96163.28;10286599;28;96928;-64
2021/12/01 00:47:42;;;;;;;5.30;2.95;;;;;;;0.46;74.88;96150.06;10291855;28;96980;-65
2021/12/01 00:52:45;;;;;;;5.60;2.95;;;;;;;0.40;73.93;96135.81;10290400;28;100391;-64
2021/12/01 00:57:50;;;;;;;5.38;3.45;;;;;;;0.31;74.74;96128.66;10287886;28;97018;-64
2021/12/01 01:02:56;;;;;;;6.57;3.78;;;;;;;0.16;74.44;96125.19;10284194;28;98314;-65
2021/12/01 01:07:59;;;;;;;5.15;3.22;;;;;;;-0.05;74.87;96112.63;10286996;28;96904;-64
2021/12/01 01:18:33;;;;;;;4.53;2.83;;;;;;;-0.27;75.03;96102.72;10287572;28;97626;-65
2021/12/01 01:23:38;;;;;;;4.07;2.67;;;;;;;-0.38;75.33;96094.81;10285395;28;96843;-65
2021/12/01 01:28:41;;;;;;;3.88;2.67;;;;;;;-0.53;75.66;96094.75;10279236;28;99277;-65
2021/12/01 01:33:46;;;;;;;5.75;3.20;;;;;;;-0.55;75.62;96085.47;10279410;28;99070;-64
2021/12/01 01:38:49;;;;;;;6.18;3.65;;;;;;;-0.59;75.28;96086.53;10287032;28;98326;-65
2021/12/01 01:43:52;;;;;;;5.25;3.03;;;;;;;-0.69;75.42;96078.50;10284528;28;97139;-64
2021/12/01 01:49:05;;;;;;;4.72;2.90;;;;;;;-0.69;75.30;96081.06;10282438;28;99075;-64
2021/12/01 01:54:08;;;;;;;6.47;3.70;;;;;;;-0.69;75.35;96077.69;10282033;28;96914;-64
2021/12/01 01:59:11;;;;;;;6.88;3.67;;;;;;;-0.78;75.54;96061.88;10282567;28;97467;-65
2021/12/01 02:04:18;;;;;;;5.78;3.38;;;;;;;-0.85;76.11;96052.88;10283294;28;97117;-64
2021/12/01 02:09:23;;;;;;;6.70;2.92;;;;;;;-0.80;76.29;96043.19;10278991;28;98366;-64
2021/12/01 02:14:28;;;;;;;4.75;2.72;;;;;;;-0.84;76.26;96033.16;10278281;28;97652;-64
2021/12/01 02:19:32;;;;;;;6.43;3.30;;;;;;;-0.94;76.53;96015.72;10280782;28;98487;-64
2021/12/01 02:24:36;;;;;;;5.63;3.40;;;;;;;-0.93;76.38;96013.97;10281822;28;98565;-64
2021/12/01 02:29:39;;;;;;;6.07;4.00;;;;;;;-1.01;76.37;96006.72;10279214;28;96933;-65
2021/12/01 02:34:44;;;;;;;5.35;3.20;;;;;;;-1.11;76.16;96001.22;10281592;28;98551;-64
2021/12/01 02:39:51;;;;;;;4.88;3.35;;;;;;;-1.19;77.07;95995.69;10287252;28;96892;-64
2021/12/01 02:44:54;;;;;;;6.28;3.08;;;;;;;-1.25;77.20;95988.34;10286464;28;96803;-64
2021/12/01 02:49:57;;;;;;;6.63;3.80;;;;;;;-1.34;77.43;95979.41;10284209;28;96909;-64
2021/12/01 02:55:03;;;;;;;6.72;3.72;;;;;;;-1.41;77.58;95977.22;10264871;28;96863;-64
2021/12/01 03:00:08;;;;;;;4.80;3.08;;;;;;;-1.39;77.69;95967.75;10283480;28;97033;-64
2021/12/01 03:05:11;;;;;;;5.80;3.03;;;;;;;-1.38;77.55;95956.56;10278898;28;97898;-64
2021/12/01 03:10:15;;;;;;;4.90;3.03;;;;;;;-1.39;77.17;95947.25;10281140;28;96890;-64
2021/12/01 03:15:19;;;;;;;3.88;2.60;;;;;;;-1.42;76.91;95944.84;10277714;28;96780;-64
2021/12/01 03:20:22;;;;;;;4.80;2.95;;;;;;;-1.52;77.96;95940.22;10281322;28;98564;-64
2021/12/01 03:25:27;;;;;;;5.05;2.97;;;;;;;-1.63;77.53;95929.69;10282141;28;97039;-64
2021/12/01 03:30:33;;;;;;;4.50;2.80;;;;;;;-1.70;77.94;95921.50;10285741;28;97146;-64
2021/12/01 03:35:38;;;;;;;5.35;3.00;;;;;;;-1.78;78.05;95917.69;10279931;28;98958;-64
2021/12/01 03:40:43;;;;;;;5.25;2.55;;;;;;;-1.93;77.95;95906.53;10278513;28;97039;-64
2021/12/01 03:45:46;;;;;;;3.77;2.80;;;;;;;-2.00;78.65;95894.94;10283629;28;97994;-63
2021/12/01 03:50:50;;;;;;;4.05;2.80;;;;;;;-2.04;77.88;95886.59;10279514;28;97226;-64
2021/12/01 03:55:54;;;;;;;5.25;3.47;;;;;;;-1.95;78.63;95886.13;10285045;28;96997;-64
2021/12/01 04:00:57;;;;;;;6.32;4.05;;;;;;;-1.91;78.19;95876.56;10274479;28;96856;-64
2021/12/01 04:06:00;;;;;;;6.75;4.30;;;;;;;-1.82;78.98;95872.69;10290344;28;96942;-63
2021/12/01 04:11:05;;;;;;;6.93;4.15;;;;;;;-1.84;78.44;95873.59;10282401;28;96889;-64
2021/12/01 04:16:07;;;;;;;8.97;4.90;;;;;;;-1.80;78.98;95868.31;10284933;28;99271;-64
2021/12/01 04:21:10;;;;;;;8.70;5.13;;;;;;;-1.60;79.35;95869.78;10284612;28;96846;-64
2021/12/01 04:26:19;;;;;;;10.80;5.85;;;;;;;-1.53;79.04;95851.47;10292187;28;96785;-64
2021/12/01 04:31:22;;;;;;;8.75;5.68;;;;;;;-1.49;79.32;95842.69;10288028;28;96871;-65
2021/12/01 04:36:28;;;;;;;7.60;4.90;;;;;;;-1.46;78.69;95846.84;10283044;28;97036;-65
2021/12/01 04:41:38;;;;;;;;;;;;;;;-1.55;79.56;95850.72;10280462;28;96813;-64
2021/12/01 04:46:43;;;;;;;11.98;6.70;;;;;;;-1.61;79.34;95853.59;10283969;28;98811;-64
2021/12/01 04:51:50;;;;;;;12.85;5.78;;;;;;;-1.58;79.55;95853.44;10281181;28;99430;-64
2021/12/01 04:56:55;;;;;;;11.02;6.15;;;;;;;-1.58;79.15;95835.50;10282581;28;96810;-63
2021/12/01 05:01:58;;;;;;;9.30;5.65;;;;;;;-1.55;79.36;95822.53;10285587;28;98818;-63
2021/12/01 05:07:01;;;;;;;8.32;5.35;;;;;;;-1.52;79.89;95811.28;10287286;28;96986;-64
2021/12/01 05:12:07;;;;;;;10.02;6.32;;;;;;;-1.35;80.01;95818.88;10286903;28;96823;-64
2021/12/01 05:17:10;;;;;;;11.15;6.90;;;;;;;-1.33;80.12;95832.41;10282382;28;98836;-64
2021/12/01 05:22:13;;;;;;;11.00;6.45;;;;;;;-1.24;80.03;95820.81;10288446;28;97479;-64
2021/12/01 05:27:17;;;;;;;9.90;5.57;;;;;;;-1.11;79.63;95814.09;10292185;28;97135;-65
2021/12/01 05:32:20;;;;;;;8.77;5.60;;;;;;;-1.03;79.25;95805.16;10281317;28;97865;-64
2021/12/01 05:37:23;;;;;;;10.60;5.93;;;;;;;-1.10;79.92;95797.81;10286218;28;97937;-64
2021/12/01 05:42:27;;;;;;;12.65;7.05;;;;;;;-1.14;80.07;95793.75;10279870;28;96996;-64
2021/12/01 05:47:30;;;;;;;13.05;7.85;;;;;;;-1.16;79.79;95795.59;10282546;28;96781;-63
2021/12/01 05:52:33;;;;;;;12.30;7.65;;;;;;;-1.17;79.92;95786.28;10286978;28;97676;-64
2021/12/01 05:57:38;;;;;;;13.43;7.72;;;;;;;-1.25;80.43;95788.44;10287316;28;98364;-64
2021/12/01 06:02:42;;;;;;;12.60;7.43;;;;;;;-1.33;80.20;95773.47;10279904;28;97868;-63
2021/12/01 06:07:46;;;;;;;12.33;7.30;;;;;;;-1.28;81.02;95773.22;10276383;28;96874;-63
2021/12/01 06:12:52;;;;;;;13.35;8.23;;;;;;;-1.35;80.85;95767.63;10281064;28;98475;-64
2021/12/01 06:17:57;;;;;;;14.70;8.32;;;;;;;-1.29;80.70;95761.34;10285176;28;98842;-64
2021/12/01 06:23:00;;;;;;;;;;;;;;;-1.21;80.87;95771.16;10289112;28;100802;-65
2021/12/01 06:28:05;;;;;;;13.98;8.82;;;;;;;-1.28;80.94;95757.84;10288398;28;97719;-64
2021/12/01 06:33:08;;;;;;;14.10;8.88;;;;;;;-1.25;80.99;95752.56;10293160;28;97238;-64
2021/12/01 06:38:11;;;;;;;16.75;9.60;;;;;;;-1.23;80.50;95739.66;10286270;28;98109;-64
2021/12/01 06:43:15;;;;;;;13.07;8.35;;;;;;;-1.21;80.56;95738.63;10298050;28;98562;-64
2021/12/01 06:48:19;;;;;;;14.63;9.40;;;;;;;-1.16;80.71;95721.25;10282660;28;96965;-64
2021/12/01 06:53:22;;;;;;;14.07;9.10;;;;;;;-1.03;80.24;95726.50;10275053;28;98622;-64
2021/12/01 06:58:26;;;;;;;13.50;8.15;;;;;;;-0.98;80.25;95718.53;10279203;28;98156;-64
2021/12/01 07:03:29;;;;;;;14.45;8.82;;;;;;;-1.09;80.86;95712.28;10279442;28;100108;-65
2021/12/01 07:08:31;;;;;;;15.30;9.35;;;;;;;-1.05;80.89;95701.88;10281037;28;96782;-64
2021/12/01 07:13:36;;;;;;;12.80;9.18;;;;;;;-0.88;80.84;95699.13;10278979;28;98574;-64
2021/12/01 07:18:39;;;;;;;16.88;10.02;;;;;;;-0.78;81.07;95692.53;10278023;28;98721;-64
2021/12/01 07:23:42;;;;;;;14.13;9.05;;;;;;;-0.73;81.58;95692.28;10283352;28;97891;-65
2021/12/01 07:28:46;;;;;;;14.63;8.85;;;;;;;-0.68;81.59;95689.41;10279302;28;98606;-64
2021/12/01 07:33:49;;;;;;;12.70;7.22;;;;;;;-0.66;81.86;95677.34;10288733;28;97848;-65
2021/12/01 07:38:53;;;;;;;12.70;7.85;;;;;;;-0.52;81.91;95659.34;10288814;28;98466;-64
2021/12/01 07:43:58;;;;;;;10.60;6.70;;;;;;;-0.46;82.04;95648.69;10284032;28;98553;-64
2021/12/01 07:49:01;;;;;;;10.23;6.45;;;;;;;-0.33;82.32;95641.06;10284247;28;98671;-64
2021/12/01 07:54:04;;;;;;;9.50;5.63;;;;;;;-0.29;82.20;95644.28;10288668;28;96951;-64
2021/12/01 07:59:10;;;;;;;9.52;5.55;;;;;;;-0.11;82.30;95640.56;10290101;28;100521;-64
2021/12/01 08:04:13;;;;;;;9.35;5.75;;;;;;;-0.01;82.01;95627.94;10292327;28;97039;-65
2021/12/01 08:09:16;;;;;;;8.23;5.25;;;;;;;0.05;81.74;95618.09;10286893;28;98809;-64
2021/12/01 08:14:21;;;;;;;7.13;4.85;;;;;;;0.11;81.63;95613.50;10283739;28;96966;-65
2021/12/01 08:19:24;;;;;;;8.03;4.77;;;;;;;0.10;82.07;95599.00;10292848;28;96804;-64
2021/12/01 08:24:27;;;;;;;9.93;5.32;;;;;;;0.32;81.87;95586.38;10289133;28;96907;-64
2021/12/01 08:29:32;;;;;;;8.80;5.32;;;;;;;0.42;81.97;95594.31;10292799;28;99067;-65
2021/12/01 08:34:35;;;;;;;7.50;4.63;;;;;;;0.40;82.15;95575.63;10290560;28;96787;-65
2021/12/01 08:39:38;;;;;;;6.70;4.65;;;;;;;0.63;82.00;95574.06;10291737;28;96891;-64
2021/12/01 08:44:45;;;;;;;8.40;5.03;;;;;;;0.87;81.54;95563.06;10288417;28;97531;-64
2021/12/01 08:49:48;;;;;;;6.30;4.60;;;;;;;0.96;81.53;95557.28;10292822;28;97012;-65
2021/12/01 08:54:51;;;;;;;5.15;3.75;;;;;;;1.12;81.31;95536.47;10287626;28;96793;-65
2021/12/01 08:59:55;;;;;;;5.97;3.80;;;;;;;1.45;80.66;95538.44;10299435;28;96925;-65
2021/12/01 09:04:58;;;;;;;5.38;3.58;;;;;;;1.45;80.50;95530.72;10299486;28;96782;-64
2021/12/01 09:10:01;;;;;;;6.40;3.92;;;;;;;1.52;80.79;95533.63;10295825;28;96924;-64
2021/12/01 09:15:06;;;;;;;5.07;3.40;;;;;;;1.56;81.08;95519.63;10299596;28;97454;-64
2021/12/01 09:20:10;;;;;;;4.80;2.97;;;;;;;1.75;80.24;95513.97;10299497;28;96898;-65
2021/12/01 09:25:13;;;;;;;6.90;3.60;;;;;;;1.92;79.74;95505.00;10294351;28;97136;-64
2021/12/01 09:30:19;;;;;;;5.50;3.40;;;;;;;2.01;79.76;95495.78;10299590;28;97883;-65
2021/12/01 09:35:21;;;;;;;6.68;3.47;;;;;;;1.99;79.47;95495.06;10299384;28;97606;-64
2021/12/01 09:40:25;;;;;;;5.50;3.60;;;;;;;2.26;79.23;95495.59;10294817;28;96885;-64
2021/12/01 09:45:29;;;;;;;4.32;2.85;;;;;;;2.36;79.12;95476.88;10295226;28;99899;-64
2021/12/01 09:50:32;;;;;;;5.28;3.00;;;;;;;2.61;78.41;95455.19;10298507;28;96747;-64
2021/12/01 09:55:36;;;;;;;5.25;3.53;;;;;;;2.53;78.41;95437.75;10293952;28;97924;-65
2021/12/01 10:00:42;;;;;;;5.53;3.22;;;;;;;2.39;80.25;95425.91;10297550;28;97371;-64
2021/12/01 10:06:07;;;;;;;5.53;3.05;;;;;;;2.73;79.14;95396.69;10298648;28;97342;-65
2021/12/01 10:11:12;;;;;;;4.95;3.15;;;;;;;2.93;78.35;95405.41;10298613;28;96682;-65
2021/12/01 10:16:18;;;;;;;4.40;2.97;;;;;;;2.88;77.50;95406.59;10294314;28;96830;-65
2021/12/01 10:21:23;;;;;;;4.45;3.17;;;;;;;2.57;77.96;95405.63;10298478;28;98861;-65
2021/12/01 10:26:28;;;;;;;8.47;3.33;;;;;;;2.35;78.65;95385.00;10298073;28;97312;-65
2021/12/01 10:31:40;;;;;;;6.65;3.63;;;;;;;2.34;78.72;95375.63;10294977;28;96982;-65
2021/12/01 10:36:44;;;;;;;6.13;3.53;;;;;;;2.39;79.39;95373.50;10295069;28;99136;-65
2021/12/01 10:41:47;;;;;;;5.75;2.80;;;;;;;2.40;78.89;95357.94;10297075;28;100018;-65
2021/12/01 10:46:53;;;;;;;6.75;3.50;;;;;;;2.49;79.39;95339.19;10295081;28;96911;-65
2021/12/01 10:51:57;;;;;;;4.93;3.03;;;;;;;2.54;80.34;95331.06;10291832;28;96794;-65
2021/12/01 10:57:22;;;;;;;6.78;3.40;;;;;;;2.71;79.74;95311.69;10297128;28;96956;-64
2021/12/01 11:02:26;;;;;;;4.88;2.90;;;;;;;2.75;79.76;95296.78;10295954;28;96877;-65
2021/12/01 11:07:31;;;;;;;6.32;3.10;;;;;;;2.86;79.78;95289.03;10299158;28;96999;-65
2021/12/01 11:12:33;;;;;;;5.37;3.10;;;;;;;2.74;80.65;95270.19;10303890;28;97390;-65
2021/12/01 11:18:00;;;;;;;5.47;3.63;;;;;;;2.90;80.57;95249.13;10304168;28;97023;-65
2021/12/01 11:23:14;;;;;;;5.75;3.47;;;;;;;2.99;80.51;95242.41;10304681;28;97020;-64
2021/12/01 11:28:21;;;;;;;6.03;3.67;;;;;;;3.05;79.87;95241.91;10299149;28;96827;-64
2021/12/01 11:33:27;;;;;;;5.57;3.70;;;;;;;2.93;80.41;95230.81;10303713;28;96841;-65
2021/12/01 11:38:29;;;;;;;6.28;3.55;;;;;;;2.92;80.53;95213.69;10302460;28;96940;-65
2021/12/01 11:43:34;;;;;;;6.32;4.18;;;;;;;2.99;80.46;95196.75;10299651;28;96782;-65
2021/12/01 11:48:40;;;;;;;5.50;3.53;;;;;;;2.90;80.92;95191.56;10301451;28;97515;-65
2021/12/01 11:53:46;;;;;;;5.97;3.85;;;;;;;2.96;80.72;95184.16;10302159;28;96891;-65
2021/12/01 11:58:56;;;;;;;7.68;4.00;;;;;;;3.14;81.16;95186.13;10287308;28;96973;-65
2021/12/01 12:04:36;;;;;;;8.15;4.45;;;;;;;3.22;80.80;95175.97;10282896;28;98829;-65
2021/12/01 12:09:41;;;;;;;6.05;3.90;;;;;;;3.10;81.36;95164.09;10296697;28;96909;-65
2021/12/01 12:14:55;;;;;;;9.07;4.93;;;;;;;3.12;81.05;95154.47;10284571;28;97124;-65
2021/12/01 12:20:03;;;;;;;8.85;5.95;;;;;;;3.04;80.86;95148.19;10283159;28;96743;-65
2021/12/01 12:25:10;;;;;;;7.35;5.75;;;;;;;2.99;81.35;95129.69;10260132;28;96881;-64
2021/12/01 12:30:16;;;;;;;8.13;5.15;;;;;;;3.00;81.28;95121.00;10265384;28;96921;-65
2021/12/01 12:35:19;;;;;;;6.85;5.10;;;;;;;2.96;80.96;95109.31;10288343;28;96848;-65
2021/12/01 12:40:34;;;;;;;8.30;4.90;;;;;;;2.88;81.58;95104.00;10276611;28;96886;-65
2021/12/01 12:45:38;;;;;;;7.23;5.00;;;;;;;2.95;80.70;95092.19;10275132;28;97006;-65
2021/12/01 12:50:41;;;;;;;9.77;6.18;;;;;;;2.96;81.39;95087.84;10276778;28;97069;-65
2021/12/01 12:55:45;;;;;;;9.23;5.15;;;;;;;2.98;81.48;95076.47;10289200;28;96892;-66
2021/12/01 13:00:53;;;;;;;9.48;5.57;;;;;;;2.93;81.53;95068.31;10284847;28;98882;-64
2021/12/01 13:05:58;;;;;;;7.63;4.90;;;;;;;2.92;81.81;95061.50;10283253;28;97059;-65
2021/12/01 13:11:06;;;;;;;4.65;3.33;;;;;;;2.88;82.08;95057.56;10293294;28;102561;-65
2021/12/01 13:16:12;;;;;;;6.15;3.40;;;;;;;2.80;82.66;95057.38;10287514;28;98637;-65
2021/12/01 13:21:17;;;;;;;5.07;3.33;;;;;;;2.75;83.22;95055.19;10277135;28;97958;-65
2021/12/01 13:26:26;;;;;;;4.43;3.10;;;;;;;2.70;82.92;95034.13;10283486;28;99148;-65
2021/12/01 13:31:32;;;;;;;4.53;3.08;;;;;;;2.69;83.09;95029.91;10288426;28;97324;-64
2021/12/01 13:36:38;;;;;;;5.47;3.55;;;;;;;2.71;83.66;95029.78;10271498;28;96969;-65
2021/12/01 13:41:44;;;;;;;4.88;3.75;;;;;;;2.71;83.99;95024.63;10268085;28;96998;-65
2021/12/01 13:46:49;;;;;;;7.28;3.95;;;;;;;2.72;83.79;95013.34;10279652;28;97034;-65
2021/12/01 13:51:52;;;;;;;6.57;3.85;;;;;;;2.75;84.01;95013.09;10289174;28;98787;-64
2021/12/01 13:57:04;;;;;;;6.35;3.30;;;;;;;2.71;83.77;95009.16;10278456;28;100178;-64
2021/12/01 14:02:08;;;;;;;4.65;2.40;;;;;;;2.76;84.26;95014.75;10273334;28;98523;-64
2021/12/01 14:07:11;;;;;;;4.25;2.20;;;;;;;2.76;84.00;95007.00;10293940;28;98981;-65
2021/12/01 14:12:27;;;;;;;3.20;1.50;;;;;;;2.78;84.16;94997.38;10281074;28;96809;-65
2021/12/01 14:17:30;;;;;;;;;;;;;;;2.80;84.20;94991.13;10283472;28;96967;-65
2021/12/01 14:22:33;;;;;;;5.10;2.10;;;;;;;2.82;84.21;94988.41;10281548;28;98457;-65
2021/12/01 14:27:38;;;;;;;3.03;1.92;;;;;;;2.87;84.55;94970.78;10289359;28;97264;-65
2021/12/01 14:32:41;;;;;;;3.37;2.00;;;;;;;2.88;84.40;94975.00;10279001;28;98071;-64
2021/12/01 14:37:45;;;;;;;3.35;2.17;;;;;;;2.87;84.36;94956.16;10281058;28;96902;-64
2021/12/01 14:42:52;;;;;;;3.60;2.25;;;;;;;2.87;85.05;94965.63;10292355;28;97466;-65
2021/12/01 14:48:04;;;;;;;4.03;2.53;;;;;;;2.84;85.12;94969.31;10281052;28;96748;-65
2021/12/01 14:53:12;;;;;;;5.43;3.20;;;;;;;2.79;84.87;94960.31;10284914;28;97044;-65
2021/12/01 14:58:19;;;;;;;5.45;3.17;;;;;;;2.78;85.40;94974.16;10285705;28;98337;-65
2021/12/01 15:03:23;;;;;;;4.68;3.40;;;;;;;2.73;85.44;94960.84;10287270;28;96884;-64
2021/12/01 15:08:29;;;;;;;4.23;3.33;;;;;;;2.76;85.77;94963.16;10282891;28;101111;-65
2021/12/01 15:13:37;;;;;;;4.97;3.20;;;;;;;2.72;85.21;94957.47;10280531;28;97730;-64
2021/12/01 15:18:42;;;;;;;5.47;3.20;;;;;;;2.74;85.61;94965.88;10285498;28;96856;-64
2021/12/01 15:23:48;;;;;;;5.67;3.67;;;;;;;2.75;86.00;94961.53;10284564;28;96871;-65
2021/12/01 15:28:55;;;;;;;5.32;3.55;;;;;;;2.72;86.02;94966.94;10281150;28;96785;-64
2021/12/01 15:34:00;;;;;;;5.45;4.13;;;;;;;2.74;85.53;94971.03;10282630;28;96820;-65
2021/12/01 15:39:20;;;;;;;6.22;3.78;;;;;;;2.73;85.84;94977.13;10281152;28;96794;-65
2021/12/01 15:44:25;;;;;;;6.05;3.80;;;;;;;2.76;85.57;94973.50;10282582;28;97704;-64
2021/12/01 15:49:28;;;;;;;6.87;3.67;;;;;;;2.77;85.88;94985.41;10275273;28;97085;-65
2021/12/01 15:54:33;;;;;;;5.53;3.83;;;;;;;2.77;86.34;94980.25;10287671;28;97697;-64
2021/12/01 15:59:37;;;;;;;5.38;3.55;;;;;;;2.83;86.17;94977.16;10281854;28;98376;-65
2021/12/01 16:04:40;;;;;;;4.95;3.58;;;;;;;2.88;85.86;94967.28;10289204;28;98681;-65
2021/12/01 16:09:43;;;;;;;5.22;2.92;;;;;;;2.94;86.26;94961.56;10284737;28;97035;-66
2021/12/01 16:14:47;;;;;;;3.65;2.90;;;;;;;2.98;85.86;94962.13;10288850;28;96978;-65
2021/12/01 16:19:50;;;;;;;3.80;2.50;;;;;;;2.97;86.37;94966.47;10293907;28;96935;-65
2021/12/01 16:24:53;;;;;;;3.80;2.30;;;;;;;2.97;85.95;94965.66;10288315;28;96817;-65
2021/12/01 16:30:07;;;;;;;3.00;2.20;;;;;;;2.95;86.30;94962.41;10278744;28;96808;-65
2021/12/01 16:35:10;;;;;;;3.50;2.63;;;;;;;3.00;86.22;94968.78;10287036;28;97037;-65
2021/12/01 16:40:15;;;;;;;3.03;2.17;;;;;;;3.04;85.98;94970.16;10287264;28;97191;-65
2021/12/01 16:45:21;;;;;;;3.97;2.13;;;;;;;3.04;86.78;94970.16;10288428;28;98026;-65
2021/12/01 16:50:26;;;;;;;3.13;2.00;;;;;;;3.07;86.52;94969.88;10291354;28;96853;-65
2021/12/01 16:55:30;;;;;;;1.60;1.30;;;;;;;3.22;86.67;94977.25;10281587;28;96908;-65
2021/12/01 17:00:40;;;;;;;1.97;1.60;;;;;;;3.20;86.66;94971.41;10281492;28;98917;-65
2021/12/01 17:05:47;;;;;;;3.05;1.77;;;;;;;3.21;86.53;94978.22;10285979;28;97680;-65
2021/12/01 17:10:50;;;;;;;2.60;1.63;;;;;;;3.15;86.31;94968.41;10291230;28;96912;-65
2021/12/01 17:15:55;;;;;;;2.70;2.10;;;;;;;3.21;86.89;94979.00;10288674;28;98777;-64
2021/12/01 17:20:59;;;;;;;4.88;2.90;;;;;;;3.24;86.74;94978.75;10286292;28;98014;-65
2021/12/01 17:26:04;;;;;;;3.70;2.70;;;;;;;3.22;86.78;94970.34;10281605;28;98222;-64
2021/12/01 17:31:16;;;;;;;3.67;2.60;;;;;;;3.26;86.97;94996.69;10290121;28;97473;-65
2021/12/01 17:36:20;;;;;;;4.53;3.53;;;;;;;3.31;86.39;94983.38;10284076;28;97569;-65
2021/12/01 17:41:23;;;;;;;3.08;2.30;;;;;;;3.33;86.16;94989.22;10281593;28;97489;-65
2021/12/01 17:46:27;;;;;;;4.25;2.83;;;;;;;3.40;86.44;94985.97;10281771;28;97647;-65
2021/12/01 17:51:33;;;;;;;2.80;2.03;;;;;;;3.42;86.08;94980.66;10283210;28;97839;-65
2021/12/01 17:56:35;;;;;;;3.40;2.17;;;;;;;3.40;85.96;94993.72;10288414;28;97007;-65
2021/12/01 18:01:40;;;;;;;4.80;2.90;;;;;;;3.42;86.54;94985.84;10280811;28;97274;-65
2021/12/01 18:06:46;;;;;;;3.40;2.60;;;;;;;3.44;86.17;94995.06;10281864;28;98141;-65
2021/12/01 18:11:51;;;;;;;3.55;2.80;;;;;;;3.47;86.05;94990.59;10281464;28;98039;-65
2021/12/01 18:16:56;;;;;;;4.07;2.33;;;;;;;3.51;85.76;94989.38;10278776;28;97125;-65
2021/12/01 18:21:59;;;;;;;3.05;2.55;;;;;;;3.47;86.33;94988.03;10281735;28;96749;-65
2021/12/01 18:27:02;;;;;;;3.65;2.63;;;;;;;3.40;86.36;94973.06;10274315;28;101121;-65
2021/12/01 18:32:08;;;;;;;4.88;2.80;;;;;;;3.38;86.75;94977.53;10279320;28;98606;-64
2021/12/01 18:37:11;;;;;;;3.95;2.83;;;;;;;3.42;85.82;94976.31;10284924;28;96934;-64
2021/12/01 18:42:14;;;;;;;4.82;3.08;;;;;;;3.43;86.21;94970.22;10284017;28;98578;-65
2021/12/01 18:47:18;;;;;;;6.07;3.70;;;;;;;3.39;86.35;94986.91;10283040;28;97141;-64
2021/12/01 18:52:21;;;;;;;4.93;3.38;;;;;;;3.33;86.01;94984.06;10284886;28;97026;-64
2021/12/01 18:57:26;;;;;;;5.13;4.10;;;;;;;3.42;86.02;94996.97;10285772;28;98118;-65
2021/12/01 19:02:32;;;;;;;6.90;4.65;;;;;;;3.45;86.21;95001.88;10280945;28;97045;-64
2021/12/01 19:07:36;;;;;;;4.97;3.20;;;;;;;3.39;86.00;95007.56;10284625;28;96752;-65
2021/12/01 19:12:39;;;;;;;3.38;2.55;;;;;;;3.38;86.27;95015.47;10281924;28;99866;-65
2021/12/01 19:17:44;;;;;;;3.63;2.75;;;;;;;3.38;86.47;95013.69;10279800;28;97095;-65
2021/12/01 19:22:48;;;;;;;5.10;3.20;;;;;;;3.35;86.54;95016.53;10286093;28;97270;-64
2021/12/01 19:27:51;;;;;;;5.10;3.33;;;;;;;3.35;87.01;95011.38;10290600;28;98184;-64
2021/12/01 19:32:55;;;;;;;4.82;3.65;;;;;;;3.29;86.81;95005.91;10286635;28;96853;-65
2021/12/01 19:37:58;;;;;;;5.10;3.90;;;;;;;3.31;86.92;95010.00;10293833;28;96744;-65
2021/12/01 19:43:03;;;;;;;6.18;4.10;;;;;;;3.35;86.61;95001.03;10286336;28;96848;-65
2021/12/01 19:48:07;;;;;;;6.05;3.80;;;;;;;3.40;86.77;95005.81;10285238;28;97250;-64
2021/12/01 19:53:10;;;;;;;11.75;7.07;;;;;;;3.42;86.51;95011.66;10289446;28;96840;-65
2021/12/01 19:58:13;;;;;;;13.30;7.47;;;;;;;3.40;86.89;95016.13;10293937;28;97277;-65
2021/12/01 20:03:18;;;;;;;7.53;4.85;;;;;;;3.43;86.93;95018.44;10292978;28;96820;-64
2021/12/01 20:08:23;;;;;;;7.47;4.40;;;;;;;3.38;87.03;95013.69;10284734;28;97989;-65
2021/12/01 20:13:31;;;;;;;6.35;4.63;;;;;;;3.46;86.35;95013.00;10281056;28;96870;-62
2021/12/01 20:18:36;;;;;;;7.40;4.82;;;;;;;3.45;86.57;95004.47;10286341;28;97414;-64
2021/12/01 20:23:39;;;;;;;9.88;5.00;;;;;;;3.48;86.47;94995.59;10290901;28;96889;-64
2021/12/01 20:28:44;;;;;;;7.45;5.03;;;;;;;3.35;86.33;95002.81;10283734;28;98282;-63
2021/12/01 20:33:49;;;;;;;4.53;3.93;;;;;;;3.29;86.50;95005.91;10284392;28;97298;-63
2021/12/01 20:38:56;;;;;;;6.18;4.55;;;;;;;3.29;86.67;94988.66;10289147;28;96758;-63
2021/12/01 20:44:00;;;;;;;7.75;5.25;;;;;;;3.34;87.05;94994.22;10283365;28;97949;-63
2021/12/01 20:54:39;;;;;;;8.85;6.63;;;;;;;3.30;86.93;95010.94;10282146;28;97648;-63
2021/12/01 20:59:59;;;;;;;10.40;7.38;;;;;;;3.21;87.71;95017.72;10281442;28;98967;-63
2021/12/01 21:05:05;;;;;;;8.32;5.45;;;;;;;3.26;87.67;95014.75;10285216;28;99091;-62
2021/12/01 21:10:10;;;;;;;7.82;5.63;;;;;;;3.37;87.35;95004.31;10277994;28;97321;-63
2021/12/01 21:15:13;;;;;;;8.20;5.93;;;;;;;3.39;86.67;94991.25;10279925;28;98536;-63
2021/12/01 21:20:19;;;;;;;9.90;7.22;;;;;;;3.37;86.87;94952.66;10279299;28;99196;-59
2021/12/01 21:25:24;;;;;;;10.98;7.65;;;;;;;3.36;86.90;94960.53;10277459;28;97975;-62
2021/12/01 21:30:28;;;;;;;10.37;7.13;;;;;;;3.32;86.76;94967.75;10279532;28;98637;-64
2021/12/01 21:35:37;;;;;;;14.35;8.55;;;;;;;3.35;86.71;94977.81;10285014;28;98562;-62
2021/12/01 21:40:40;;;;;;;8.57;6.38;;;;;;;3.44;86.14;94982.16;10286939;28;98685;-63
2021/12/01 21:45:43;;;;;;;9.15;6.13;;;;;;;3.47;86.35;94969.94;10281575;28;98630;-63
2021/12/01 21:50:49;;;;;;;8.02;5.53;;;;;;;3.49;85.83;94963.69;10275958;28;101031;-63
2021/12/01 21:55:54;;;;;;;8.57;5.75;;;;;;;3.44;86.58;94966.66;10277201;28;97047;-63
2021/12/01 22:00:57;;;;;;;5.80;5.03;;;;;;;3.35;86.25;94959.75;10282496;28;98589;-63
2021/12/01 22:06:04;;;;;;;8.82;5.45;;;;;;;3.23;86.35;94940.19;10282985;28;97507;-63
2021/12/01 22:11:09;;;;;;;8.02;5.72;;;;;;;3.12;87.67;94942.88;10282280;28;98955;-63
2021/12/01 22:16:13;;;;;;;7.53;4.25;;;;;;;3.12;86.63;94942.88;10285316;28;97057;-63
2021/12/01 22:21:20;;;;;;;5.22;3.72;;;;;;;3.05;86.69;94946.00;10296083;28;96989;-63
2021/12/01 22:26:31;;;;;;;7.28;4.43;;;;;;;2.97;86.74;94945.03;10276351;28;98334;-63
2021/12/01 22:31:35;;;;;;;7.43;4.18;;;;;;;2.95;86.87;94942.56;10281719;28;98392;-63
2021/12/01 22:36:42;;;;;;;4.75;3.90;;;;;;;2.96;86.63;94936.47;10286877;28;96971;-63
2021/12/01 22:41:45;;;;;;;3.70;2.88;;;;;;;2.94;86.86;94922.06;10273944;28;96990;-63
2021/12/01 22:46:48;;;;;;;5.18;3.30;;;;;;;2.94;87.24;94922.06;10282249;28;97184;-62
2021/12/01 22:51:53;;;;;;;5.70;3.95;;;;;;;2.91;87.25;94923.16;10282931;28;97046;-63
2021/12/01 22:57:03;;;;;;;5.50;3.97;;;;;;;2.91;87.11;94915.44;10283227;28;96874;-63
2021/12/01 23:02:10;;;;;;;5.88;3.78;;;;;;;2.86;86.82;94925.31;10280031;28;98050;-62
2021/12/01 23:07:15;;;;;;;4.88;3.85;;;;;;;2.94;87.13;94932.38;10282959;28;98430;-63
2021/12/01 23:12:21;;;;;;;7.88;4.72;;;;;;;2.96;86.99;94931.31;10284627;28;97401;-63
2021/12/01 23:17:24;;;;;;;5.07;4.13;;;;;;;2.92;87.09;94927.34;10290906;28;97437;-62
2021/12/01 23:22:38;;;;;;;5.70;3.95;;;;;;;3.00;86.49;94919.78;10280479;28;98454;-63
2021/12/01 23:27:41;;;;;;;6.65;3.80;;;;;;;2.98;86.64;94915.69;10280433;28;97207;-62
2021/12/01 23:32:58;;;;;;;6.05;4.18;;;;;;;2.93;87.31;94897.22;10279945;28;97748;-62
2021/12/01 23:38:05;;;;;;;5.85;3.95;;;;;;;2.88;86.49;94882.16;10283664;28;97705;-63
2021/12/01 23:43:11;;;;;;;5.05;3.35;;;;;;;2.88;86.86;94874.41;10279629;28;97303;-62
2021/12/01 23:48:27;;;;;;;4.90;3.90;;;;;;;2.89;86.28;94878.59;10280895;28;98657;-63
2021/12/01 23:53:31;;;;;;;;;;;;;;;2.88;86.66;94872.66;10280252;28;97208;-62
2021/12/01 23:58:34;;;;;;;5.72;4.05;;;;;;;2.80;86.60;94854.44;10285895;28;96833;-62
